createdAt,value
2023-03-05T00:01:29.366Z,99923.63
2023-03-05T00:03:57.821Z,99923.50
2023-03-05T00:06:28.024Z,99925.31
2023-03-05T00:08:58.429Z,99926.09
2023-03-05T00:11:30.192Z,99928.06
2023-03-05T00:13:59.511Z,99917.66
2023-03-05T00:16:28.294Z,99914.22
2023-03-05T00:18:57.814Z,99919.81
2023-03-05T00:21:35.316Z,99912.09
2023-03-05T00:24:15.479Z,99915.66
2023-03-05T00:26:43.942Z,99913.88
2023-03-05T00:29:22.006Z,99908.75
2023-03-05T00:31:50.050Z,99906.88
2023-03-05T00:34:19.260Z,99899.94
2023-03-05T00:36:50.369Z,99898.28
2023-03-05T00:39:19.918Z,99895.53
2023-03-05T00:41:48.501Z,99892.78
2023-03-05T00:44:16.238Z,99892.88
2023-03-05T00:46:44.253Z,99885.19
2023-03-05T00:49:12.122Z,99885.88
2023-03-05T00:51:40.460Z,99885.88
2023-03-05T00:54:08.087Z,99881.50
2023-03-05T00:56:36.152Z,99878.81
2023-03-05T00:59:04.466Z,99880.53
2023-03-05T01:01:32.481Z,99872.09
2023-03-05T01:04:01.272Z,99875.47
2023-03-05T01:06:29.642Z,99873.81
2023-03-05T01:08:57.352Z,99872.88
2023-03-05T01:11:25.772Z,99868.53
2023-03-05T01:13:53.933Z,99867.81
2023-03-05T01:16:22.017Z,99870.63
2023-03-05T01:18:49.748Z,99865.88
2023-03-05T01:21:17.751Z,99860.69
2023-03-05T01:23:45.402Z,99866.53
2023-03-05T01:26:13.321Z,99862.13
2023-03-05T01:28:41.574Z,99860.41
2023-03-05T01:31:10.759Z,99850.25
2023-03-05T01:33:39.702Z,99850.31
2023-03-05T01:36:13.343Z,99844.22
2023-03-05T01:38:42.260Z,99838.19
2023-03-05T01:41:11.427Z,99844.97
2023-03-05T01:43:39.711Z,99838.31
2023-03-05T01:46:28.072Z,99835.88
2023-03-05T01:49:14.357Z,99836.88
2023-03-05T01:51:42.285Z,99830.72
2023-03-05T01:54:13.279Z,99833.38
2023-03-05T01:56:43.453Z,99827.16
2023-03-05T01:59:12.779Z,99823.91
2023-03-05T02:01:48.116Z,99819.53
2023-03-05T02:04:18.759Z,99824.59
2023-03-05T02:06:48.522Z,99827.16
2023-03-05T02:09:16.220Z,99813.41
2023-03-05T02:11:44.535Z,99827.25
2023-03-05T02:14:12.348Z,99821.97
2023-03-05T02:16:41.096Z,99827.97
2023-03-05T02:19:12.803Z,99826.44
2023-03-05T02:21:44.258Z,99820.44
2023-03-05T02:24:18.279Z,99816.97
2023-03-05T02:26:47.818Z,99817.94
2023-03-05T02:29:19.843Z,99814.50
2023-03-05T02:31:48.011Z,99817.19
2023-03-05T02:34:15.797Z,99809.50
2023-03-05T02:36:43.772Z,99817.16
2023-03-05T02:39:13.610Z,99807.88
2023-03-05T02:41:41.720Z,99810.50
2023-03-05T02:44:09.963Z,99807.13
2023-03-05T02:46:38.434Z,99803.66
2023-03-05T02:49:06.181Z,99800.28
2023-03-05T02:51:34.201Z,99801.13
2023-03-05T02:54:02.247Z,99797.78
2023-03-05T02:56:31.218Z,99794.31
2023-03-05T02:59:01.925Z,99798.47
2023-03-05T03:01:30.095Z,99795.84
2023-03-05T03:03:59.005Z,99784.72
2023-03-05T03:06:27.082Z,99789.72
2023-03-05T03:08:54.922Z,99783.69
2023-03-05T03:11:22.912Z,99793.16
2023-03-05T03:13:50.525Z,99796.56
2023-03-05T03:16:18.713Z,99794.78
2023-03-05T03:18:48.809Z,99790.50
2023-03-05T03:21:24.660Z,99787.88
2023-03-05T03:23:52.717Z,99788.78
2023-03-05T03:26:21.015Z,99784.75
2023-03-05T03:28:48.673Z,99785.47
2023-03-05T03:31:16.741Z,99783.69
2023-03-05T03:33:44.639Z,99784.50
2023-03-05T03:36:13.145Z,99780.06
2023-03-05T03:38:40.848Z,99778.41
2023-03-05T03:41:09.540Z,99768.13
2023-03-05T03:43:37.638Z,99768.13
2023-03-05T03:46:07.363Z,99775.81
2023-03-05T03:48:36.080Z,99769.84
2023-03-05T03:51:08.298Z,99763.19
2023-03-05T03:53:35.967Z,99768.41
2023-03-05T03:56:04.216Z,99761.47
2023-03-05T03:58:31.886Z,99762.34
2023-03-05T04:00:59.880Z,99749.59
2023-03-05T04:03:27.579Z,99756.44
2023-03-05T04:05:55.471Z,99758.03
2023-03-05T04:08:23.144Z,99758.09
2023-03-05T04:10:51.063Z,99751.53
2023-03-05T04:13:18.780Z,99752.38
2023-03-05T04:15:46.832Z,99749.78
2023-03-05T04:18:14.484Z,99752.41
2023-03-05T04:20:42.441Z,99747.31
2023-03-05T04:23:10.064Z,99743.03
2023-03-05T04:25:37.928Z,99743.16
2023-03-05T04:28:05.814Z,99738.97
2023-03-05T04:30:33.773Z,99741.72
2023-03-05T04:33:01.424Z,99734.97
2023-03-05T04:35:29.368Z,99731.63
2023-03-05T04:37:57.052Z,99741.00
2023-03-05T04:40:24.960Z,99742.81
2023-03-05T04:42:52.598Z,99734.44
2023-03-05T04:45:20.513Z,99729.44
2023-03-05T04:47:48.197Z,99732.06
2023-03-05T04:50:16.323Z,99723.56
2023-03-05T04:52:45.636Z,99722.00
2023-03-05T04:55:15.730Z,99724.50
2023-03-05T04:57:43.684Z,99718.63
2023-03-05T05:00:14.851Z,99716.94
2023-03-05T05:02:45.014Z,99716.91
2023-03-05T05:05:16.559Z,99711.69
2023-03-05T05:07:44.851Z,99712.56
2023-03-05T05:10:14.138Z,99708.22
2023-03-05T05:12:42.136Z,99704.00
2023-03-05T05:15:12.315Z,99699.72
2023-03-05T05:17:40.600Z,99697.09
2023-03-05T05:20:11.572Z,99698.00
2023-03-05T05:22:39.496Z,99693.78
2023-03-05T05:25:07.720Z,99696.31
2023-03-05T05:27:35.856Z,99690.31
2023-03-05T05:30:04.610Z,99689.41
2023-03-05T05:32:32.273Z,99692.16
2023-03-05T05:35:00.371Z,99699.75
2023-03-05T05:37:29.508Z,99695.88
2023-03-05T05:39:57.428Z,99695.06
2023-03-05T05:42:26.373Z,99695.03
2023-03-05T05:44:55.532Z,99690.06
2023-03-05T05:47:23.221Z,99688.41
2023-03-05T05:49:51.459Z,99691.94
2023-03-05T05:52:19.137Z,99687.88
2023-03-05T05:54:47.156Z,99689.09
2023-03-05T05:57:14.902Z,99685.75
2023-03-05T05:59:43.057Z,99681.16
2023-03-05T06:02:13.767Z,99690.63
2023-03-05T06:04:41.749Z,99686.25
2023-03-05T06:07:09.388Z,99688.16
2023-03-05T06:09:37.342Z,99684.84
2023-03-05T06:12:05.517Z,99683.16
2023-03-05T06:14:33.586Z,99676.84
2023-03-05T06:17:01.381Z,99675.38
2023-03-05T06:19:29.378Z,99685.38
2023-03-05T06:21:57.628Z,99678.41
2023-03-05T06:24:25.698Z,99677.53
2023-03-05T06:26:53.369Z,99675.09
2023-03-05T06:29:21.352Z,99666.19
2023-03-05T06:31:49.140Z,99669.03
2023-03-05T06:34:17.074Z,99646.56
2023-03-05T06:36:44.795Z,99657.38
2023-03-05T06:39:12.740Z,99649.09
2023-03-05T06:41:40.548Z,99640.31
2023-03-05T06:44:08.464Z,99640.38
2023-03-05T06:46:39.820Z,99640.47
2023-03-05T06:49:09.604Z,99629.38
2023-03-05T06:51:39.657Z,99645.53
2023-03-05T06:54:12.676Z,99635.19
2023-03-05T06:56:42.964Z,99627.97
2023-03-05T06:59:13.487Z,99634.16
2023-03-05T07:01:41.192Z,99631.47
2023-03-05T07:04:09.241Z,99623.75
2023-03-05T07:06:38.755Z,99621.47
2023-03-05T07:09:08.977Z,99613.31
2023-03-05T07:11:36.961Z,99614.00
2023-03-05T07:14:05.301Z,99620.13
2023-03-05T07:16:34.217Z,99616.91
2023-03-05T07:19:04.276Z,99602.22
2023-03-05T07:21:34.195Z,99597.88
2023-03-05T07:24:03.922Z,99594.88
2023-03-05T07:26:33.565Z,99594.88
2023-03-05T07:29:02.610Z,99599.09
2023-03-05T07:31:33.313Z,99593.84
2023-03-05T07:34:02.928Z,99596.41
2023-03-05T07:36:32.315Z,99597.56
2023-03-05T07:39:00.423Z,99602.53
2023-03-05T07:41:28.161Z,99600.34
2023-03-05T07:43:57.585Z,99584.56
2023-03-05T07:46:30.675Z,99594.31
2023-03-05T07:48:59.045Z,99593.38
2023-03-05T07:51:27.983Z,99594.78
2023-03-05T07:53:58.430Z,99583.03
2023-03-05T07:56:37.893Z,99592.16
2023-03-05T07:59:08.848Z,99595.34
2023-03-05T08:01:37.360Z,99600.38
2023-03-05T08:04:07.324Z,99598.00
2023-03-05T08:06:35.067Z,99601.38
2023-03-05T08:09:03.148Z,99600.06
2023-03-05T08:11:30.903Z,99605.56
2023-03-05T08:13:59.578Z,99595.09
2023-03-05T08:16:27.952Z,99596.97
2023-03-05T08:18:57.511Z,99600.47
2023-03-05T08:21:33.521Z,99589.56
2023-03-05T08:24:04.250Z,99590.69
2023-03-05T08:26:34.166Z,99585.47
2023-03-05T08:29:03.367Z,99593.25
2023-03-05T08:31:31.733Z,99590.16
2023-03-05T08:34:01.019Z,99592.28
2023-03-05T08:36:29.963Z,99581.94
2023-03-05T08:38:59.767Z,99581.88
2023-03-05T08:41:27.687Z,99585.00
2023-03-05T08:43:55.901Z,99578.53
2023-03-05T08:46:24.080Z,99570.50
2023-03-05T08:48:52.151Z,99586.69
2023-03-05T08:51:23.600Z,99578.91
2023-03-05T08:53:52.391Z,99577.88
2023-03-05T08:56:20.669Z,99572.44
2023-03-05T08:58:48.702Z,99569.88
2023-03-05T09:01:16.388Z,99565.53
2023-03-05T09:03:44.396Z,99574.59
2023-03-05T09:06:12.922Z,99574.72
2023-03-05T09:08:41.238Z,99572.34
2023-03-05T09:11:11.670Z,99577.22
2023-03-05T09:13:39.862Z,99571.38
2023-03-05T09:16:11.366Z,99574.72
2023-03-05T09:18:40.658Z,99573.13
2023-03-05T09:21:10.887Z,99572.59
2023-03-05T09:23:40.684Z,99573.53
2023-03-05T09:26:12.060Z,99576.84
2023-03-05T09:28:40.913Z,99573.28
2023-03-05T09:31:10.659Z,99578.00
2023-03-05T09:33:39.710Z,99582.63
2023-03-05T09:36:27.442Z,99581.16
2023-03-05T09:38:55.764Z,99577.66
2023-03-05T09:41:30.848Z,99585.94
2023-03-05T09:44:08.904Z,99582.34
2023-03-05T09:46:43.881Z,99571.72
2023-03-05T09:49:39.635Z,99580.50
2023-03-05T09:52:39.536Z,99582.06
2023-03-05T09:55:24.389Z,99576.06
2023-03-05T09:57:57.205Z,99576.00
2023-03-05T10:00:32.734Z,99576.84
2023-03-05T10:03:05.835Z,99577.84
2023-03-05T10:06:11.246Z,99570.03
2023-03-05T10:09:02.813Z,99564.97
2023-03-05T10:11:46.113Z,99569.06
2023-03-05T10:14:20.003Z,99566.94
2023-03-05T10:16:56.779Z,99562.78
2023-03-05T10:19:52.444Z,99566.28
2023-03-05T10:22:28.579Z,99559.63
2023-03-05T10:25:26.403Z,99549.81
2023-03-05T10:28:17.765Z,99552.28
2023-03-05T10:30:55.953Z,99544.94
2023-03-05T10:33:43.829Z,99548.81
2023-03-05T10:36:24.304Z,99547.28
2023-03-05T10:39:16.849Z,99547.03
2023-03-05T10:42:05.878Z,99542.28
2023-03-05T10:44:54.417Z,99551.66
2023-03-05T10:47:54.344Z,99541.97
2023-03-05T10:50:25.974Z,99541.19
2023-03-05T10:53:03.567Z,99535.63
2023-03-05T10:55:32.179Z,99527.28
2023-03-05T10:58:01.245Z,99528.84
2023-03-05T11:00:29.249Z,99531.22
2023-03-05T11:03:03.466Z,99532.06
2023-03-05T11:05:40.329Z,99530.75
2023-03-05T11:08:32.489Z,99531.84
2023-03-05T11:11:09.164Z,99525.66
2023-03-05T11:13:59.772Z,99514.75
2023-03-05T11:16:34.148Z,99519.41
2023-03-05T11:19:24.622Z,99512.19
2023-03-05T11:22:15.172Z,99512.28
2023-03-05T11:24:46.660Z,99505.41
2023-03-05T11:27:36.901Z,99510.34
2023-03-05T11:30:24.368Z,99508.56
2023-03-05T11:33:13.685Z,99500.84
2023-03-05T11:35:43.843Z,99504.28
2023-03-05T11:38:24.676Z,99498.47
2023-03-05T11:40:55.709Z,99501.81
2023-03-05T11:43:26.289Z,99499.22
2023-03-05T11:46:05.520Z,99488.44
2023-03-05T11:48:37.641Z,99490.75
2023-03-05T11:51:18.281Z,99490.59
2023-03-05T11:53:50.244Z,99489.53
2023-03-05T11:56:24.410Z,99484.22
2023-03-05T11:59:07.193Z,99483.84
2023-03-05T12:01:42.476Z,99484.16
2023-03-05T12:04:10.542Z,99484.16
2023-03-05T12:07:02.073Z,99463.59
2023-03-05T12:09:50.658Z,99475.13
2023-03-05T12:12:44.649Z,99473.31
2023-03-05T12:15:37.055Z,99465.91
2023-03-05T12:18:21.065Z,99468.06
2023-03-05T12:21:14.792Z,99462.72
2023-03-05T12:24:03.045Z,99466.94
2023-03-05T12:26:56.118Z,99466.22
2023-03-05T12:29:43.591Z,99462.78
2023-03-05T12:32:25.649Z,99459.78
2023-03-05T12:35:00.300Z,99467.38
2023-03-05T12:37:28.271Z,99463.84
2023-03-05T12:40:17.352Z,99461.53
2023-03-05T12:43:05.981Z,99460.47
2023-03-05T12:45:39.624Z,99455.50
2023-03-05T12:48:11.965Z,99458.28
2023-03-05T12:50:39.924Z,99446.44
2023-03-05T12:53:18.475Z,99450.56
2023-03-05T12:55:48.914Z,99453.44
2023-03-05T12:58:35.349Z,99446.59
2023-03-05T13:01:11.835Z,99441.41
2023-03-05T13:03:48.626Z,99437.97
2023-03-05T13:06:34.134Z,99439.56
2023-03-05T13:09:25.363Z,99443.16
2023-03-05T13:11:55.272Z,99439.78
2023-03-05T13:14:32.291Z,99437.00
2023-03-05T13:17:00.985Z,99435.22
2023-03-05T13:19:32.887Z,99430.09
2023-03-05T13:22:11.577Z,99437.50
2023-03-05T13:24:39.526Z,99425.47
2023-03-05T13:27:31.055Z,99433.25
2023-03-05T13:29:59.057Z,99435.75
2023-03-05T13:32:30.796Z,99432.59
2023-03-05T13:35:02.089Z,99422.31
2023-03-05T13:37:34.450Z,99428.25
2023-03-05T13:40:15.736Z,99427.31
2023-03-05T13:42:43.467Z,99419.72
2023-03-05T13:45:31.622Z,99420.41
2023-03-05T13:48:05.746Z,99421.44
2023-03-05T13:50:38.195Z,99412.88
2023-03-05T13:53:31.781Z,99410.13
2023-03-05T13:56:13.783Z,99405.00
2023-03-05T13:58:57.196Z,99403.16
2023-03-05T14:01:36.932Z,99403.22
2023-03-05T14:04:13.819Z,99406.75
2023-03-05T14:07:07.635Z,99397.03
2023-03-05T14:09:41.080Z,99400.69
2023-03-05T14:12:38.514Z,99393.00
2023-03-05T14:15:47.560Z,99391.41
2023-03-05T14:18:19.593Z,99384.72
2023-03-05T14:21:08.866Z,99379.44
2023-03-05T14:23:53.005Z,99381.50
2023-03-05T14:26:32.606Z,99372.84
2023-03-05T14:29:05.228Z,99372.75
2023-03-05T14:31:57.801Z,99373.59
2023-03-05T14:34:27.840Z,99378.03
2023-03-05T14:37:03.387Z,99375.50
2023-03-05T14:39:59.947Z,99372.78
2023-03-05T14:42:50.823Z,99378.75
2023-03-05T14:45:40.873Z,99373.78
2023-03-05T14:48:10.638Z,99375.47
2023-03-05T14:50:42.483Z,99372.06
2023-03-05T14:53:48.376Z,99366.97
2023-03-05T14:56:28.172Z,99366.06
2023-03-05T14:58:59.737Z,99370.56
2023-03-05T15:01:27.935Z,99363.91
2023-03-05T15:03:55.674Z,99373.38
2023-03-05T15:06:45.396Z,99367.97
2023-03-05T15:09:17.670Z,99370.63
2023-03-05T15:11:45.992Z,99359.38
2023-03-05T15:14:13.677Z,99351.78
2023-03-05T15:16:45.427Z,99363.00
2023-03-05T15:19:13.899Z,99370.88
2023-03-05T15:21:42.240Z,99360.16
2023-03-05T15:24:11.352Z,99361.97
2023-03-05T15:26:39.860Z,99373.09
2023-03-05T15:29:07.582Z,99363.84
2023-03-05T15:31:38.761Z,99370.81
2023-03-05T15:34:07.288Z,99371.59
2023-03-05T15:36:35.193Z,99369.81
2023-03-05T15:39:03.093Z,99376.00
2023-03-05T15:41:31.139Z,99380.28
2023-03-05T15:43:58.885Z,99378.56
2023-03-05T15:46:26.911Z,99382.00
2023-03-05T15:48:54.806Z,99375.25
2023-03-05T15:51:22.870Z,99383.75
2023-03-05T15:53:50.692Z,99372.59
2023-03-05T15:56:19.539Z,99381.13
2023-03-05T15:58:53.247Z,99376.03
2023-03-05T16:01:23.350Z,99361.50
2023-03-05T16:03:51.642Z,99373.66
2023-03-05T16:06:24.028Z,99370.31
2023-03-05T16:08:56.903Z,99372.97
2023-03-05T16:11:25.856Z,99378.19
2023-03-05T16:13:53.770Z,99382.50
2023-03-05T16:16:23.684Z,99386.81
2023-03-05T16:18:51.555Z,99388.56
2023-03-05T16:21:19.734Z,99385.97
2023-03-05T16:23:49.419Z,99376.53
2023-03-05T16:26:17.595Z,99391.13
2023-03-05T16:28:45.575Z,99393.75
2023-03-05T16:31:13.631Z,99392.91
2023-03-05T16:33:41.324Z,99387.81
2023-03-05T16:36:20.756Z,99392.09
2023-03-05T16:38:50.934Z,99389.53
2023-03-05T16:41:21.954Z,99392.09
2023-03-05T16:43:54.154Z,99392.09
2023-03-05T16:46:23.018Z,99395.53
2023-03-05T16:48:52.289Z,99403.19
2023-03-05T16:51:21.280Z,99399.78
2023-03-05T16:53:49.284Z,99402.34
2023-03-05T16:56:17.670Z,99402.34
2023-03-05T16:58:45.362Z,99400.66
2023-03-05T17:01:18.129Z,99402.38
2023-03-05T17:03:47.002Z,99406.66
2023-03-05T17:06:24.130Z,99418.63
2023-03-05T17:08:52.880Z,99410.94
2023-03-05T17:11:21.562Z,99405.78
2023-03-05T17:13:49.370Z,99403.22
2023-03-05T17:16:33.850Z,99401.50
2023-03-05T17:19:01.687Z,99401.53
2023-03-05T17:21:29.629Z,99404.09
2023-03-05T17:23:57.521Z,99402.38
2023-03-05T17:26:25.959Z,99405.81
2023-03-05T17:28:54.596Z,99413.53
2023-03-05T17:31:22.717Z,99403.28
2023-03-05T17:33:50.938Z,99411.81
2023-03-05T17:36:20.829Z,99405.84
2023-03-05T17:38:50.315Z,99399.00
2023-03-05T17:41:19.830Z,99404.97
2023-03-05T17:43:48.005Z,99413.50
2023-03-05T17:46:16.887Z,99404.06
2023-03-05T17:48:45.055Z,99402.38
2023-03-05T17:51:16.411Z,99411.75
2023-03-05T17:53:44.390Z,99404.00
2023-03-05T17:56:14.248Z,99413.38
2023-03-05T17:58:42.134Z,99409.06
2023-03-05T18:01:10.656Z,99407.38
2023-03-05T18:03:39.354Z,99414.13
2023-03-05T18:06:07.662Z,99409.03
2023-03-05T18:08:36.068Z,99408.97
2023-03-05T18:11:04.161Z,99411.47
2023-03-05T18:13:32.226Z,99411.44
2023-03-05T18:16:01.091Z,99398.59
2023-03-05T18:18:28.995Z,99410.56
2023-03-05T18:20:57.213Z,99413.88
2023-03-05T18:23:24.990Z,99408.84
2023-03-05T18:25:53.160Z,99419.03
2023-03-05T18:28:21.055Z,99414.72
2023-03-05T18:30:49.361Z,99412.97
2023-03-05T18:33:25.184Z,99419.75
2023-03-05T18:35:53.769Z,99412.03
2023-03-05T18:38:23.669Z,99412.09
2023-03-05T18:40:53.417Z,99412.88
2023-03-05T18:43:22.559Z,99415.38
2023-03-05T18:45:55.855Z,99408.63
2023-03-05T18:48:23.858Z,99408.59
2023-03-05T18:50:53.907Z,99405.16
2023-03-05T18:53:22.570Z,99408.50
2023-03-05T18:55:51.944Z,99406.84
2023-03-05T18:58:20.069Z,99410.25
2023-03-05T19:00:48.899Z,99415.28
2023-03-05T19:03:19.337Z,99412.75
2023-03-05T19:05:50.257Z,99406.75
2023-03-05T19:08:18.337Z,99405.84
2023-03-05T19:10:47.014Z,99411.00
2023-03-05T19:13:36.300Z,99406.72
2023-03-05T19:16:36.841Z,99408.50
2023-03-05T19:19:14.361Z,99411.94
2023-03-05T19:21:43.954Z,99411.00
2023-03-05T19:24:12.316Z,99413.63
2023-03-05T19:26:40.811Z,99409.41
2023-03-05T19:29:09.473Z,99407.69
2023-03-05T19:31:38.134Z,99410.28
2023-03-05T19:34:05.979Z,99405.94
2023-03-05T19:36:35.582Z,99413.53
2023-03-05T19:39:05.727Z,99415.28
2023-03-05T19:41:34.412Z,99416.09
2023-03-05T19:44:02.781Z,99415.25
2023-03-05T19:46:31.696Z,99408.34
2023-03-05T19:48:59.637Z,99418.53
2023-03-05T19:51:28.492Z,99414.28
2023-03-05T19:53:56.321Z,99417.66
2023-03-05T19:56:24.335Z,99420.22
2023-03-05T19:58:52.096Z,99424.50
2023-03-05T20:01:23.092Z,99425.38
2023-03-05T20:03:54.430Z,99421.09
2023-03-05T20:06:23.248Z,99424.47
2023-03-05T20:08:51.301Z,99423.59
2023-03-05T20:11:21.566Z,99421.84
2023-03-05T20:13:50.334Z,99419.34
2023-03-05T20:16:26.740Z,99429.63
2023-03-05T20:18:55.905Z,99426.16
2023-03-05T20:21:27.684Z,99416.81
2023-03-05T20:23:58.017Z,99415.06
2023-03-05T20:26:27.113Z,99421.94
2023-03-05T20:28:56.541Z,99423.63
2023-03-05T20:31:26.462Z,99423.72
2023-03-05T20:33:56.282Z,99414.34
2023-03-05T20:36:24.633Z,99422.06
2023-03-05T20:38:52.459Z,99410.94
2023-03-05T20:41:20.904Z,99417.00
2023-03-05T20:43:50.791Z,99423.78
2023-03-05T20:46:22.265Z,99420.34
2023-03-05T20:48:52.087Z,99410.06
2023-03-05T20:51:24.567Z,99416.06
2023-03-05T20:53:57.942Z,99410.88
2023-03-05T20:56:28.011Z,99415.06
2023-03-05T20:58:58.242Z,99419.31
2023-03-05T21:01:27.418Z,99426.94
2023-03-05T21:03:57.227Z,99413.25
2023-03-05T21:06:27.200Z,99429.41
2023-03-05T21:08:55.135Z,99422.50
2023-03-05T21:11:23.196Z,99426.75
2023-03-05T21:13:51.053Z,99419.94
2023-03-05T21:16:26.012Z,99420.72
2023-03-05T21:18:55.943Z,99417.25
2023-03-05T21:21:24.514Z,99427.56
2023-03-05T21:23:53.306Z,99425.03
2023-03-05T21:26:21.681Z,99419.16
2023-03-05T21:28:49.451Z,99411.50
2023-03-05T21:31:20.661Z,99415.75
2023-03-05T21:33:49.431Z,99406.53
2023-03-05T21:36:18.850Z,99408.13
2023-03-05T21:38:47.904Z,99410.66
2023-03-05T21:41:18.191Z,99408.88
2023-03-05T21:43:46.276Z,99409.81
2023-03-05T21:46:15.059Z,99406.28
2023-03-05T21:48:43.093Z,99405.41
2023-03-05T21:51:13.687Z,99404.50
2023-03-05T21:53:41.899Z,99403.50
2023-03-05T21:56:19.185Z,99400.84
2023-03-05T21:58:47.965Z,99395.81
2023-03-05T22:01:18.561Z,99401.84
2023-03-05T22:03:47.636Z,99403.44
2023-03-05T22:06:17.761Z,99399.94
2023-03-05T22:08:46.140Z,99408.38
2023-03-05T22:11:17.234Z,99397.38
2023-03-05T22:13:45.458Z,99396.44
2023-03-05T22:16:25.645Z,99398.25
2023-03-05T22:18:53.838Z,99391.56
2023-03-05T22:21:26.944Z,99391.44
2023-03-05T22:23:57.191Z,99392.41
2023-03-05T22:26:26.412Z,99389.81
2023-03-05T22:28:54.496Z,99392.41
2023-03-05T22:31:24.637Z,99394.16
2023-03-05T22:33:53.132Z,99382.16
2023-03-05T22:36:20.934Z,99387.25
2023-03-05T22:38:48.916Z,99396.69
2023-03-05T22:41:19.866Z,99385.69
2023-03-05T22:43:48.952Z,99388.38
2023-03-05T22:46:23.229Z,99391.03
2023-03-05T22:48:52.269Z,99391.97
2023-03-05T22:51:20.337Z,99394.50
2023-03-05T22:53:48.258Z,99389.47
2023-03-05T22:56:18.874Z,99383.53
2023-03-05T22:58:47.601Z,99387.84
2023-03-05T23:01:18.409Z,99387.09
2023-03-05T23:03:47.362Z,99392.06
2023-03-05T23:06:15.119Z,99385.28
2023-03-05T23:08:43.077Z,99392.06
2023-03-05T23:11:12.989Z,99387.84
2023-03-05T23:13:41.752Z,99382.66
2023-03-05T23:16:09.831Z,99387.81
2023-03-05T23:18:38.093Z,99391.22
2023-03-05T23:21:06.082Z,99391.03
2023-03-05T23:23:34.111Z,99392.56
2023-03-05T23:26:01.906Z,99392.53
2023-03-05T23:28:29.910Z,99390.94
2023-03-05T23:30:58.699Z,99395.09
2023-03-05T23:33:26.596Z,99393.25
2023-03-05T23:35:59.505Z,99389.06
2023-03-05T23:38:29.634Z,99388.91
2023-03-05T23:41:01.262Z,99391.44
2023-03-05T23:43:30.051Z,99383.88
2023-03-05T23:45:57.966Z,99384.72
2023-03-05T23:48:27.827Z,99389.75
2023-03-05T23:50:55.850Z,99387.94
2023-03-05T23:53:32.943Z,99387.16
2023-03-05T23:56:00.664Z,99386.13
2023-03-05T23:58:28.611Z,99381.75
